Time;durP1;ratioP1;P1;durP2;ratioP2;P2;SDS_P1;SDS_P2;PMS_P1;PMS_P2;Temp;Humidity;BMP_temperature;BMP_pressure;BME280_temperature;BME280_humidity;BME280_pressure;Samples;Min_cycle;Max_cycle;Signal;HPM_P1;HPM_P2
2023/08/28 00:00:12;;;;;;;13.30;12.40;;;19.90;99.90;;;;;;5010734;28;20029;-76
2023/08/28 00:02:38;;;;;;;19.05;17.73;;;19.90;99.90;;;;;;5012542;28;20034;-76
2023/08/28 00:05:04;;;;;;;10.65;9.95;;;19.90;99.90;;;;;;5013168;28;20038;-76
2023/08/28 00:07:31;;;;;;;21.02;19.58;;;19.80;99.90;;;;;;5011405;28;20403;-76
2023/08/28 00:09:57;;;;;;;23.10;21.67;;;19.80;99.90;;;;;;5012706;28;20030;-76
2023/08/28 00:12:23;;;;;;;18.88;17.65;;;19.80;99.90;;;;;;5012201;28;20383;-76
2023/08/28 00:14:49;;;;;;;21.25;19.95;;;19.90;99.90;;;;;;5012313;28;20038;-76
2023/08/28 00:17:17;;;;;;;72.65;69.00;;;19.80;99.90;;;;;;5011737;28;20030;-76
2023/08/28 00:19:43;;;;;;;19.83;18.48;;;19.80;99.90;;;;;;5012844;28;20041;-76
2023/08/28 00:22:10;;;;;;;18.48;17.05;;;19.90;99.90;;;;;;5012171;28;20034;-76
2023/08/28 00:24:36;;;;;;;14.63;13.63;;;19.90;99.90;;;;;;5012700;28;20037;-76
2023/08/28 00:27:02;;;;;;;34.65;32.83;;;20.00;99.90;;;;;;5012104;28;20029;-76
2023/08/28 00:29:28;;;;;;;52.97;50.22;;;19.90;99.90;;;;;;5012151;28;20034;-76
2023/08/28 00:31:54;;;;;;;44.10;41.55;;;19.90;99.90;;;;;;5011482;28;20049;-76
2023/08/28 00:34:20;;;;;;;30.08;28.20;;;19.90;99.90;;;;;;5012368;28;20393;-75
2023/08/28 00:36:46;;;;;;;63.80;60.45;;;19.90;99.90;;;;;;5012109;28;20034;-76
2023/08/28 00:39:12;;;;;;;61.33;58.13;;;19.90;99.90;;;;;;5012407;28;20034;-76
2023/08/28 00:41:39;;;;;;;88.63;83.90;;;19.90;99.90;;;;;;5012166;28;20050;-75
2023/08/28 00:44:05;;;;;;;43.33;40.85;;;19.90;99.90;;;;;;5012345;28;20062;-76
2023/08/28 00:46:32;;;;;;;54.08;51.00;;;19.90;99.90;;;;;;5014137;28;20034;-76
2023/08/28 00:48:58;;;;;;;18.08;16.80;;;19.80;99.90;;;;;;5012289;28;20048;-76
2023/08/28 00:51:24;;;;;;;13.07;12.18;;;19.80;99.90;;;;;;4994594;28;20033;-76
2023/08/28 00:53:50;;;;;;;14.73;13.55;;;19.80;99.90;;;;;;5012016;28;20157;-76
2023/08/28 00:56:16;;;;;;;15.18;14.13;;;19.80;99.90;;;;;;5011896;28;20030;-76
2023/08/28 00:58:42;;;;;;;22.35;21.05;;;19.80;99.90;;;;;;5011834;28;20041;-76
2023/08/28 01:01:08;;;;;;;19.70;18.45;;;19.70;99.90;;;;;;5012558;28;20475;-76
2023/08/28 01:03:34;;;;;;;25.45;23.75;;;19.70;99.90;;;;;;5014786;28;20108;-76
2023/08/28 01:06:02;;;;;;;27.13;25.25;;;19.70;99.90;;;;;;5015558;28;20364;-76
2023/08/28 01:08:53;;;;;;;23.00;21.65;;;19.60;99.90;;;;;;5014522;28;20022;-76
2023/08/28 01:11:31;;;;;;;;;;;19.60;99.90;;;;;;5015995;28;20057;-76
2023/08/28 01:14:07;;;;;;;11.98;11.27;;;19.60;99.90;;;;;;5015266;28;19913;-76
2023/08/28 01:16:33;;;;;;;15.43;14.35;;;19.60;99.90;;;;;;5013694;28;20030;-76
2023/08/28 01:18:59;;;;;;;15.88;14.82;;;19.50;99.90;;;;;;5014457;28;20387;-75
2023/08/28 01:21:25;;;;;;;23.00;21.52;;;19.60;99.90;;;;;;5014342;28;20033;-76
2023/08/28 01:24:03;;;;;;;21.63;20.33;;;19.60;99.90;;;;;;5014568;28;20036;-76
2023/08/28 01:26:29;;;;;;;17.48;16.35;;;19.60;99.90;;;;;;5014152;28;20049;-76
2023/08/28 01:28:55;;;;;;;13.98;12.98;;;19.60;99.90;;;;;;5014030;28;20037;-76
2023/08/28 01:31:23;;;;;;;17.33;16.08;;;19.60;99.90;;;;;;5014544;28;20038;-76
2023/08/28 01:33:52;;;;;;;16.05;14.75;;;19.60;99.90;;;;;;5015455;28;20042;-76
2023/08/28 01:36:32;;;;;;;15.35;14.23;;;19.60;99.90;;;;;;5013824;28;20034;-75
2023/08/28 01:39:01;;;;;;;17.40;16.02;;;19.60;99.90;;;;;;5014205;28;20036;-75
2023/08/28 01:41:27;;;;;;;15.10;14.05;;;19.60;99.90;;;;;;5014524;28;20037;-76
2023/08/28 01:44:01;;;;;;;22.90;21.58;;;19.50;99.90;;;;;;5013977;28;20041;-76
2023/08/28 01:46:33;;;;;;;16.17;15.13;;;19.50;99.90;;;;;;5012970;28;20038;-76
2023/08/28 01:48:59;;;;;;;12.77;11.88;;;19.30;99.90;;;;;;5013576;28;20042;-75
2023/08/28 01:51:25;;;;;;;22.10;20.48;;;19.20;99.90;;;;;;5014678;28;20029;-76
2023/08/28 01:53:52;;;;;;;21.45;20.15;;;19.00;99.90;;;;;;5014696;28;20403;-77
2023/08/28 01:56:19;;;;;;;31.02;29.13;;;19.10;99.90;;;;;;5013920;28;20033;-76
2023/08/28 01:58:48;;;;;;;41.45;39.25;;;19.00;99.90;;;;;;5012180;28;20042;-76
2023/08/28 02:01:14;;;;;;;22.88;21.55;;;19.10;99.90;;;;;;5008304;28;20888;-75
2023/08/28 02:03:40;;;;;;;24.45;22.75;;;19.10;99.90;;;;;;5011701;28;20034;-76
2023/08/28 02:06:06;;;;;;;28.42;26.73;;;19.00;99.90;;;;;;5013788;28;20034;-76
2023/08/28 02:08:32;;;;;;;49.63;46.95;;;19.10;99.90;;;;;;5014049;28;20675;-75
2023/08/28 02:10:58;;;;;;;57.65;54.75;;;19.10;99.90;;;;;;5012737;28;20038;-75
2023/08/28 02:13:25;;;;;;;42.22;39.92;;;19.10;99.90;;;;;;5012574;28;20479;-76
2023/08/28 02:15:52;;;;;;;72.80;69.07;;;19.00;99.90;;;;;;5012751;28;20053;-76
2023/08/28 02:18:18;;;;;;;153.73;146.27;;;19.10;99.90;;;;;;5013215;28;20030;-77
2023/08/28 02:20:44;;;;;;;65.00;61.67;;;19.10;99.90;;;;;;5013154;28;20029;-76
2023/08/28 02:23:11;;;;;;;29.05;27.10;;;19.20;99.90;;;;;;5011901;28;20403;-76
2023/08/28 02:25:41;;;;;;;18.45;17.27;;;19.30;99.90;;;;;;5012991;28;20037;-76
2023/08/28 02:28:07;;;;;;;32.97;31.02;;;19.30;99.90;;;;;;5013254;28;20050;-77
2023/08/28 02:30:33;;;;;;;19.67;18.30;;;19.30;99.90;;;;;;5012261;28;20049;-76
2023/08/28 02:32:59;;;;;;;35.20;33.22;;;19.30;99.90;;;;;;5012853;28;20018;-76
2023/08/28 02:35:25;;;;;;;75.38;71.43;;;19.20;99.90;;;;;;5012776;28;20030;-76
2023/08/28 02:37:51;;;;;;;108.07;102.85;;;19.20;99.90;;;;;;5013832;28;20022;-76
2023/08/28 02:40:18;;;;;;;59.47;56.38;;;19.20;99.90;;;;;;5013523;28;20034;-76
2023/08/28 02:42:44;;;;;;;67.88;64.50;;;19.20;99.90;;;;;;5013863;28;20482;-76
2023/08/28 02:45:10;;;;;;;126.57;120.22;;;19.20;99.90;;;;;;5013245;28;20052;-76
2023/08/28 02:47:36;;;;;;;171.35;163.05;;;19.20;99.90;;;;;;5013830;28;20033;-76
2023/08/28 02:50:04;;;;;;;17.15;16.00;;;19.20;99.90;;;;;;5013733;28;20387;-76
2023/08/28 02:52:30;;;;;;;20.90;19.63;;;19.20;99.90;;;;;;5012319;28;20058;-76
2023/08/28 02:54:56;;;;;;;17.70;16.67;;;19.00;99.90;;;;;;5013557;28;20038;-76
2023/08/28 02:57:22;;;;;;;77.63;73.57;;;19.10;99.90;;;;;;5013227;28;20618;-76
2023/08/28 02:59:48;;;;;;;60.65;57.38;;;19.10;99.90;;;;;;5013718;28;20033;-76
2023/08/28 03:02:14;;;;;;;55.05;51.78;;;19.00;99.90;;;;;;5012882;28;20038;-76
2023/08/28 03:04:43;;;;;;;57.30;54.28;;;19.00;99.90;;;;;;5011982;28;20050;-76
2023/08/28 03:07:09;;;;;;;54.83;51.97;;;19.00;99.90;;;;;;5013174;28;20030;-76
2023/08/28 03:09:35;;;;;;;47.67;45.03;;;19.00;99.90;;;;;;5013491;28;20391;-76
2023/08/28 03:12:02;;;;;;;40.47;38.05;;;19.00;99.90;;;;;;5013168;28;20036;-76
2023/08/28 03:14:28;;;;;;;40.25;37.78;;;18.90;99.90;;;;;;5013678;28;20503;-76
2023/08/28 03:16:54;;;;;;;37.83;35.47;;;19.00;99.90;;;;;;5012605;28;20041;-75
2023/08/28 03:19:20;;;;;;;43.35;40.70;;;19.00;99.90;;;;;;5013418;28;20471;-76
2023/08/28 03:21:46;;;;;;;48.45;45.60;;;19.00;99.90;;;;;;5012927;28;20037;-76
2023/08/28 03:24:12;;;;;;;42.67;40.45;;;19.10;99.90;;;;;;5012590;28;20547;-76
2023/08/28 03:26:38;;;;;;;36.50;34.35;;;19.00;99.90;;;;;;5012518;28;20034;-76
2023/08/28 03:29:05;;;;;;;53.72;50.85;;;19.00;99.90;;;;;;5013221;28;20357;-76
2023/08/28 03:31:31;;;;;;;52.78;49.70;;;19.00;99.90;;;;;;5012276;28;20041;-76
2023/08/28 03:33:59;;;;;;;48.65;46.17;;;19.10;99.90;;;;;;5013093;28;20038;-75
2023/08/28 03:36:25;;;;;;;76.32;72.35;;;19.00;99.90;;;;;;5012994;28;20041;-75
2023/08/28 03:38:51;;;;;;;96.13;91.22;;;19.10;99.90;;;;;;5012686;28;20026;-76
2023/08/28 03:41:17;;;;;;;91.70;86.68;;;19.10;99.90;;;;;;5012689;28;20466;-76
2023/08/28 03:43:43;;;;;;;175.93;167.05;;;19.10;99.90;;;;;;5012898;28;20038;-75
2023/08/28 03:46:10;;;;;;;71.18;67.68;;;19.10;99.90;;;;;;5012375;28;20437;-76
2023/08/28 03:48:36;;;;;;;72.80;68.75;;;19.10;99.90;;;;;;5012905;28;20038;-76
2023/08/28 03:51:02;;;;;;;79.82;75.72;;;19.00;99.90;;;;;;5012347;28;20410;-76
2023/08/28 03:53:28;;;;;;;85.97;81.50;;;19.00;99.90;;;;;;5012408;28;20049;-76
2023/08/28 03:55:54;;;;;;;55.17;52.22;;;18.90;99.90;;;;;;5012513;28;20029;-76
2023/08/28 03:58:22;;;;;;;46.28;43.75;;;18.90;99.90;;;;;;5012779;28;20057;-76
2023/08/28 04:00:52;;;;;;;50.45;47.83;;;18.90;99.90;;;;;;5012544;28;20034;-76
2023/08/28 04:03:18;;;;;;;47.20;44.63;;;19.00;99.90;;;;;;5012896;28;20049;-76
2023/08/28 04:05:44;;;;;;;40.85;38.45;;;19.00;99.90;;;;;;5012500;28;20025;-76
2023/08/28 04:08:11;;;;;;;44.88;42.45;;;19.00;99.90;;;;;;5012448;28;20033;-76
2023/08/28 04:10:37;;;;;;;37.15;34.97;;;19.10;99.90;;;;;;5012285;28;20034;-76
2023/08/28 04:13:03;;;;;;;49.65;47.00;;;19.10;99.90;;;;;;5013112;28;20383;-75
2023/08/28 04:15:29;;;;;;;65.93;62.28;;;19.10;99.90;;;;;;5011907;28;20388;-75
2023/08/28 04:17:57;;;;;;;71.78;68.05;;;19.10;99.90;;;;;;5012430;28;20034;-75
2023/08/28 04:20:23;;;;;;;28.13;26.42;;;19.10;99.90;;;;;;5012780;28;20042;-75
2023/08/28 04:22:49;;;;;;;27.58;26.13;;;19.10;99.90;;;;;;5012201;28;20459;-76
2023/08/28 04:25:15;;;;;;;25.27;23.77;;;19.00;99.90;;;;;;5012264;28;20030;-76
2023/08/28 04:27:42;;;;;;;37.97;35.88;;;18.80;99.90;;;;;;5011124;28;20462;-75
2023/08/28 04:30:08;;;;;;;25.40;23.95;;;18.70;99.90;;;;;;5012074;28;20038;-76
2023/08/28 04:32:35;;;;;;;26.63;25.13;;;18.70;99.90;;;;;;5008756;28;20041;-76
2023/08/28 04:35:01;;;;;;;22.48;21.17;;;18.70;99.90;;;;;;5012127;28;20042;-76
2023/08/28 04:37:27;;;;;;;34.72;32.75;;;18.60;99.90;;;;;;5015260;28;20041;-76
2023/08/28 04:39:53;;;;;;;21.05;19.95;;;18.70;99.90;;;;;;5016625;28;20045;-76
2023/08/28 04:42:19;;;;;;;27.23;25.77;;;18.80;99.90;;;;;;5016078;28;20030;-76
2023/08/28 04:44:46;;;;;;;21.27;20.17;;;18.80;99.90;;;;;;5015248;28;20029;-75
2023/08/28 04:47:15;;;;;;;23.13;21.88;;;18.70;99.90;;;;;;5015404;28;20578;-76
2023/08/28 04:49:41;;;;;;;19.20;18.20;;;18.60;99.90;;;;;;5016414;28;20049;-76
2023/08/28 04:52:07;;;;;;;19.88;18.77;;;18.60;99.90;;;;;;5015544;28;20034;-77
2023/08/28 04:54:33;;;;;;;16.60;15.60;;;18.60;99.90;;;;;;5016011;28;20050;-77
2023/08/28 04:56:59;;;;;;;17.38;16.38;;;18.60;99.90;;;;;;5015844;28;20025;-76
2023/08/28 04:59:26;;;;;;;17.85;16.90;;;18.50;99.90;;;;;;5016091;28;20030;-76
2023/08/28 05:01:52;;;;;;;20.02;18.73;;;18.50;99.90;;;;;;5015016;28;20038;-76
2023/08/28 05:04:18;;;;;;;21.25;20.15;;;18.50;99.90;;;;;;5015623;28;20034;-76
2023/08/28 05:06:44;;;;;;;26.40;24.77;;;18.50;99.90;;;;;;5015391;28;20041;-76
2023/08/28 05:09:13;;;;;;;19.60;18.45;;;18.60;99.90;;;;;;5014537;28;20045;-76
2023/08/28 05:11:39;;;;;;;19.33;18.23;;;18.60;99.90;;;;;;5015504;28;20451;-75
2023/08/28 05:14:05;;;;;;;30.95;29.42;;;18.60;99.90;;;;;;5015467;28;20094;-76
2023/08/28 05:16:31;;;;;;;33.90;32.10;;;18.50;99.90;;;;;;5014910;28;20043;-76
2023/08/28 05:18:57;;;;;;;32.95;31.15;;;18.60;99.90;;;;;;5015397;28;20030;-76
2023/08/28 05:21:24;;;;;;;29.35;27.85;;;18.60;99.90;;;;;;5015144;28;20041;-76
2023/08/28 05:23:51;;;;;;;24.85;23.42;;;18.70;99.90;;;;;;5015331;28;20483;-77
2023/08/28 05:26:17;;;;;;;22.63;21.08;;;18.70;99.90;;;;;;5015516;28;20479;-76
2023/08/28 05:28:45;;;;;;;23.95;22.38;;;18.60;99.90;;;;;;5015262;28;20029;-76
2023/08/28 05:31:11;;;;;;;25.77;24.33;;;18.70;99.90;;;;;;5014741;28;20591;-76
2023/08/28 05:33:37;;;;;;;23.98;22.48;;;18.60;99.90;;;;;;5015065;28;20033;-76
2023/08/28 05:36:03;;;;;;;24.00;22.60;;;18.70;99.90;;;;;;5014804;28;20042;-76
2023/08/28 05:38:30;;;;;;;20.95;19.80;;;18.70;99.90;;;;;;5014931;28;20037;-76
2023/08/28 05:40:56;;;;;;;24.08;22.73;;;18.70;99.90;;;;;;5015155;28;20364;-76
2023/08/28 05:43:22;;;;;;;28.75;27.25;;;18.70;99.90;;;;;;5015141;28;20030;-76
2023/08/28 05:45:48;;;;;;;36.92;34.83;;;18.70;99.90;;;;;;4996958;28;20110;-76
2023/08/28 05:48:14;;;;;;;33.38;31.55;;;18.70;99.90;;;;;;5013833;28;20407;-76
2023/08/28 05:50:44;;;;;;;35.22;33.33;;;18.60;99.90;;;;;;5014588;28;20041;-76
2023/08/28 05:53:10;;;;;;;30.10;28.33;;;18.70;99.90;;;;;;5014778;28;20060;-76
2023/08/28 05:55:36;;;;;;;26.55;25.15;;;18.60;99.90;;;;;;5014726;28;20038;-76
2023/08/28 05:58:02;;;;;;;22.42;21.13;;;18.70;99.90;;;;;;5013365;28;20042;-76
2023/08/28 06:00:28;;;;;;;23.23;21.67;;;18.70;99.90;;;;;;5016820;28;20026;-76
2023/08/28 06:02:54;;;;;;;24.15;22.88;;;18.80;99.90;;;;;;5014609;28;20037;-76
2023/08/28 06:05:21;;;;;;;24.05;22.60;;;18.80;99.90;;;;;;5014495;28;20034;-76
2023/08/28 06:07:47;;;;;;;22.48;21.17;;;18.80;99.90;;;;;;5014524;28;20040;-76
2023/08/28 06:10:17;;;;;;;20.98;19.88;;;18.80;99.90;;;;;;5014578;28;20030;-76
2023/08/28 06:12:45;;;;;;;21.20;19.85;;;18.90;99.90;;;;;;5014921;28;20042;-76
2023/08/28 06:15:13;;;;;;;21.42;20.08;;;18.90;99.90;;;;;;5014056;28;20046;-76
2023/08/28 06:17:39;;;;;;;21.30;20.00;;;18.80;99.90;;;;;;5014241;28;20026;-76
2023/08/28 06:20:09;;;;;;;14.77;13.88;;;18.80;99.90;;;;;;5014519;28;20030;-76
2023/08/28 06:22:38;;;;;;;29.25;27.48;;;18.70;99.90;;;;;;5014298;28;20387;-76
2023/08/28 06:25:05;;;;;;;20.88;19.77;;;18.70;99.90;;;;;;5014497;28;20029;-76
2023/08/28 06:27:31;;;;;;;28.63;26.98;;;18.70;99.90;;;;;;5013046;28;20026;-76
2023/08/28 06:29:57;;;;;;;28.13;26.42;;;18.70;99.90;;;;;;5014407;28;20057;-76
2023/08/28 06:32:23;;;;;;;32.75;31.02;;;18.70;99.90;;;;;;5013148;28;20475;-76
2023/08/28 06:34:49;;;;;;;39.13;37.10;;;18.70;99.90;;;;;;5014265;28;20046;-76
2023/08/28 06:37:15;;;;;;;26.83;25.25;;;18.90;99.90;;;;;;5012661;28;20034;-75
2023/08/28 06:39:41;;;;;;;28.38;26.73;;;19.00;99.90;;;;;;5014225;28;20053;-75
2023/08/28 06:42:08;;;;;;;38.97;36.78;;;19.10;99.90;;;;;;5014041;28;20049;-76
2023/08/28 06:44:34;;;;;;;20.38;19.20;;;19.20;99.90;;;;;;5014118;28;20025;-76
2023/08/28 06:47:00;;;;;;;17.95;16.85;;;19.20;99.90;;;;;;5012695;28;20041;-75
2023/08/28 06:49:26;;;;;;;18.40;17.30;;;19.10;99.90;;;;;;5013780;28;20025;-76
2023/08/28 06:51:52;;;;;;;18.05;16.95;;;19.20;99.90;;;;;;5013403;28;20490;-75
2023/08/28 06:54:18;;;;;;;26.98;25.58;;;19.20;99.90;;;;;;5013915;28;20037;-75
2023/08/28 06:56:44;;;;;;;29.23;27.13;;;19.20;99.90;;;;;;5013384;28;20488;-76
2023/08/28 06:59:10;;;;;;;17.92;16.67;;;19.30;99.90;;;;;;5013590;28;20037;-76
2023/08/28 07:01:37;;;;;;;15.93;15.15;;;19.20;99.90;;;;;;5012730;28;20495;-76
2023/08/28 07:04:04;;;;;;;23.02;21.75;;;19.10;99.90;;;;;;5013629;28;20037;-74
2023/08/28 07:06:30;;;;;;;22.30;21.00;;;19.00;99.90;;;;;;5013343;28;20415;-74
2023/08/28 07:08:57;;;;;;;17.92;16.83;;;18.80;99.90;;;;;;5013704;28;20164;-75
2023/08/28 07:11:24;;;;;;;15.20;14.30;;;18.80;99.90;;;;;;5013268;28;20034;-74
2023/08/28 07:13:50;;;;;;;13.38;12.48;;;18.70;99.90;;;;;;5013480;28;20033;-74
2023/08/28 07:16:16;;;;;;;15.05;14.10;;;18.70;99.90;;;;;;5012457;28;20041;-74
2023/08/28 07:18:43;;;;;;;11.27;10.32;;;18.70;99.90;;;;;;5013480;28;20030;-74
2023/08/28 07:21:09;;;;;;;10.45;9.82;;;18.70;99.90;;;;;;5013037;28;20463;-74
2023/08/28 07:23:36;;;;;;;16.38;15.38;;;18.70;99.90;;;;;;5013832;28;20045;-74
2023/08/28 07:26:03;;;;;;;12.90;12.20;;;18.90;99.90;;;;;;5012986;28;20487;-75
2023/08/28 07:28:30;;;;;;;14.70;13.60;;;19.00;99.90;;;;;;5012235;28;20053;-73
2023/08/28 07:30:57;;;;;;;15.48;14.63;;;19.10;99.90;;;;;;5010977;28;20030;-74
2023/08/28 07:33:23;;;;;;;16.65;15.65;;;19.20;99.90;;;;;;5013358;28;20368;-74
2023/08/28 07:35:49;;;;;;;17.63;16.60;;;19.20;99.90;;;;;;5012827;28;20526;-74
2023/08/28 07:38:16;;;;;;;21.42;20.17;;;19.20;99.90;;;;;;5013162;28;20030;-74
2023/08/28 07:40:42;;;;;;;19.70;18.65;;;19.30;99.90;;;;;;5012825;28;20518;-74
2023/08/28 07:43:08;;;;;;;36.78;34.78;;;19.30;99.90;;;;;;5012877;28;20038;-74
2023/08/28 07:45:34;;;;;;;24.15;22.92;;;19.40;99.90;;;;;;5011972;28;20030;-74
2023/08/28 07:48:00;;;;;;;40.08;37.90;;;19.60;99.90;;;;;;5012807;28;20472;-74
2023/08/28 07:50:29;;;;;;;24.10;22.63;;;19.80;99.90;;;;;;5011697;28;20030;-74
2023/08/28 07:52:55;;;;;;;15.98;15.05;;;20.00;99.90;;;;;;5012784;28;20479;-74
2023/08/28 07:55:21;;;;;;;16.23;15.20;;;20.10;99.90;;;;;;5013000;28;20050;-74
2023/08/28 07:57:47;;;;;;;19.27;18.15;;;20.20;99.90;;;;;;5012678;28;20379;-74
2023/08/28 08:00:15;;;;;;;20.42;19.35;;;20.40;99.90;;;;;;5011813;28;20030;-75
2023/08/28 08:02:42;;;;;;;25.23;23.88;;;20.50;99.90;;;;;;5012934;28;20057;-74
2023/08/28 08:05:10;;;;;;;65.95;62.75;;;20.70;99.90;;;;;;5012836;28;20038;-75
2023/08/28 08:07:39;;;;;;;50.95;48.40;;;21.00;99.90;;;;;;5012308;28;20045;-74
2023/08/28 08:10:09;;;;;;;91.65;87.18;;;21.10;99.90;;;;;;5012644;28;20022;-75
2023/08/28 08:12:35;;;;;;;75.32;71.57;;;21.10;99.90;;;;;;5012003;28;20041;-75
2023/08/28 08:15:02;;;;;;;39.88;37.88;;;21.20;99.90;;;;;;5012400;28;20072;-75
2023/08/28 08:17:29;;;;;;;53.70;51.05;;;21.10;99.90;;;;;;5011273;28;20034;-74
2023/08/28 08:19:55;;;;;;;43.95;41.67;;;21.00;99.90;;;;;;5012656;28;20038;-75
2023/08/28 08:22:21;;;;;;;45.00;42.78;;;20.50;99.90;;;;;;5012418;28;20030;-74
2023/08/28 08:24:47;;;;;;;52.65;49.92;;;20.40;99.90;;;;;;5012524;28;20056;-75
2023/08/28 08:27:13;;;;;;;27.38;26.02;;;20.30;99.90;;;;;;5011851;28;20030;-70
2023/08/28 08:29:39;;;;;;;26.75;25.48;;;20.20;99.90;;;;;;5012457;28;20034;-74
2023/08/28 08:32:05;;;;;;;19.20;18.23;;;20.10;99.90;;;;;;5011810;28;20034;-75
2023/08/28 08:34:32;;;;;;;16.88;15.88;;;20.10;99.90;;;;;;5012421;28;20050;-74
2023/08/28 08:36:58;;;;;;;11.50;10.90;;;19.90;99.90;;;;;;5012293;28;20040;-76
2023/08/28 08:39:24;;;;;;;10.55;10.05;;;19.90;99.90;;;;;;5012321;28;20587;-75
2023/08/28 08:41:51;;;;;;;12.00;11.18;;;20.10;99.90;;;;;;5011658;28;20037;-75
2023/08/28 08:44:17;;;;;;;10.60;10.07;;;20.30;99.90;;;;;;5012421;28;20034;-74
2023/08/28 08:46:45;;;;;;;11.13;10.60;;;20.60;99.90;;;;;;5011362;28;20034;-75
2023/08/28 08:49:14;;;;;;;11.75;11.15;;;20.80;99.90;;;;;;5012235;28;20053;-75
2023/08/28 08:51:42;;;;;;;13.07;12.38;;;20.90;99.90;;;;;;4994447;28;20030;-74
2023/08/28 08:54:12;;;;;;;12.50;11.80;;;20.90;99.90;;;;;;5012371;28;20046;-75
2023/08/28 08:56:38;;;;;;;13.32;12.48;;;20.80;99.90;;;;;;5011622;28;20053;-75
2023/08/28 08:59:04;;;;;;;22.27;21.17;;;20.70;99.90;;;;;;5010933;28;20034;-75
2023/08/28 09:01:30;;;;;;;18.25;17.35;;;20.80;99.90;;;;;;5011551;28;20510;-75
2023/08/28 09:03:58;;;;;;;11.10;10.50;;;20.80;99.90;;;;;;5012418;28;20510;-75
2023/08/28 09:06:25;;;;;;;22.75;21.55;;;20.80;99.90;;;;;;5011847;28;20385;-75
2023/08/28 09:08:51;;;;;;;13.27;12.48;;;20.80;99.90;;;;;;5011117;28;20665;-74
2023/08/28 09:11:17;;;;;;;34.97;33.22;;;20.90;99.90;;;;;;5010221;28;20034;-76
2023/08/28 09:13:44;;;;;;;27.05;25.73;;;21.10;99.90;;;;;;5011001;28;20514;-76
2023/08/28 09:16:10;;;;;;;13.15;12.45;;;21.20;99.90;;;;;;5011365;28;20050;-75
2023/08/28 09:18:37;;;;;;;14.48;13.70;;;21.50;99.90;;;;;;5011038;28;20033;-75
2023/08/28 09:21:07;;;;;;;15.00;14.25;;;21.70;99.90;;;;;;5010505;28;20368;-74
2023/08/28 09:23:33;;;;;;;15.00;14.27;;;21.70;99.90;;;;;;5015282;28;20387;-74
2023/08/28 09:26:00;;;;;;;20.88;19.88;;;21.60;99.90;;;;;;5014876;28;20046;-75
2023/08/28 09:28:26;;;;;;;23.02;21.75;;;21.30;99.90;;;;;;5014289;28;20037;-75
2023/08/28 09:30:52;;;;;;;15.00;14.20;;;20.90;99.90;;;;;;5013495;28;20383;-76
2023/08/28 09:33:18;;;;;;;24.35;23.02;;;20.90;99.90;;;;;;5015398;28;20026;-75
2023/08/28 09:35:44;;;;;;;19.35;18.42;;;21.00;99.90;;;;;;5014917;28;20054;-73
2023/08/28 09:38:11;;;;;;;19.60;18.60;;;21.20;99.90;;;;;;5015284;28;20026;-74
2023/08/28 09:40:41;;;;;;;22.95;21.73;;;21.20;99.90;;;;;;5014822;28;20042;-75
2023/08/28 09:43:15;;;;;;;23.25;22.13;;;21.10;99.90;;;;;;5015560;28;20467;-75
2023/08/28 09:45:44;;;;;;;18.48;17.58;;;21.00;99.90;;;;;;5014255;28;20044;-74
2023/08/28 09:48:11;;;;;;;25.63;24.38;;;20.90;99.90;;;;;;5015238;28;20033;-75
2023/08/28 09:50:38;;;;;;;34.78;33.10;;;21.00;99.90;;;;;;5014666;28;20030;-76
2023/08/28 09:53:11;;;;;;;44.20;41.30;;;21.10;99.90;;;;;;5014784;28;20041;-75
2023/08/28 09:55:49;;;;;;;44.80;42.53;;;21.40;99.90;;;;;;5014350;28;20030;-76
2023/08/28 09:58:16;;;;;;;74.28;70.65;;;21.60;99.90;;;;;;5015116;28;20026;-76
2023/08/28 10:00:42;;;;;;;70.97;67.65;;;21.50;99.90;;;;;;5014104;28;20029;-76
2023/08/28 10:03:12;;;;;;;74.88;71.35;;;21.50;99.90;;;;;;5015092;28;20042;-75
2023/08/28 10:05:44;;;;;;;82.50;78.43;;;21.60;99.90;;;;;;5014855;28;20058;-75
2023/08/28 10:08:10;;;;;;;72.22;68.82;;;21.80;99.90;;;;;;5015049;28;20045;-76
2023/08/28 10:10:38;;;;;;;83.63;79.65;;;21.90;99.90;;;;;;5014638;28;20038;-76
2023/08/28 10:13:05;;;;;;;53.30;50.80;;;21.90;99.90;;;;;;5014923;28;20037;-76
2023/08/28 10:15:31;;;;;;;61.85;58.85;;;21.90;99.90;;;;;;5012638;28;20361;-75
2023/08/28 10:18:09;;;;;;;35.28;33.58;;;21.90;99.90;;;;;;5014575;28;20018;-76
2023/08/28 10:20:35;;;;;;;30.05;28.65;;;21.90;99.90;;;;;;5013277;28;20041;-76
2023/08/28 10:23:02;;;;;;;28.67;27.27;;;21.80;99.90;;;;;;5013453;28;20022;-75
2023/08/28 10:25:32;;;;;;;30.33;28.90;;;21.80;99.90;;;;;;5014023;28;20517;-76
2023/08/28 10:27:58;;;;;;;23.42;22.33;;;21.80;99.90;;;;;;5014738;28;20069;-74
2023/08/28 10:30:27;;;;;;;22.08;20.92;;;21.60;99.90;;;;;;5013649;28;20490;-76
2023/08/28 10:32:56;;;;;;;25.02;23.83;;;21.50;99.90;;;;;;4993654;28;20054;-75
2023/08/28 10:35:22;;;;;;;40.13;38.25;;;21.40;99.90;;;;;;4995399;28;20035;-75
2023/08/28 10:37:50;;;;;;;54.40;51.83;;;21.30;99.90;;;;;;5014097;28;20040;-75
2023/08/28 10:40:17;;;;;;;74.68;71.15;;;21.40;99.90;;;;;;5012391;28;20400;-76
2023/08/28 10:42:44;;;;;;;66.03;62.83;;;21.50;99.90;;;;;;5012909;28;20030;-76
2023/08/28 10:45:10;;;;;;;27.33;25.92;;;21.60;99.90;;;;;;5012252;28;20036;-77
2023/08/28 10:47:37;;;;;;;99.03;94.22;;;21.70;99.90;;;;;;5012810;28;20030;-75
2023/08/28 10:50:07;;;;;;;72.32;68.95;;;21.90;99.90;;;;;;4977767;28;20049;-76
2023/08/28 10:52:33;;;;;;;94.13;89.75;;;21.80;99.90;;;;;;5011738;28;20069;-75
2023/08/28 10:55:09;;;;;;;90.55;86.28;;;21.80;99.90;;;;;;5012822;28;20041;-75
2023/08/28 10:57:42;;;;;;;98.78;94.07;;;21.80;99.90;;;;;;5012544;28;20030;-77
2023/08/28 11:00:16;;;;;;;116.85;111.45;;;21.80;99.90;;;;;;5013721;28;20037;-74
2023/08/28 11:03:10;;;;;;;96.85;92.25;;;21.90;99.90;;;;;;5013909;28;20053;-76
2023/08/28 11:05:39;;;;;;;70.75;67.45;;;21.80;99.90;;;;;;5013669;28;20048;-75
2023/08/28 11:08:07;;;;;;;49.63;47.28;;;21.70;99.90;;;;;;5013471;28;20034;-77
2023/08/28 11:10:33;;;;;;;94.35;89.95;;;21.70;99.90;;;;;;5012497;28;20053;-75
2023/08/28 11:13:06;;;;;;;128.85;122.78;;;21.80;99.90;;;;;;5013485;28;20021;-76
2023/08/28 11:15:34;;;;;;;81.22;77.45;;;21.80;99.90;;;;;;5012721;28;20413;-77
2023/08/28 11:18:18;;;;;;;143.73;137.13;;;21.80;99.90;;;;;;5013358;28;20037;-76
2023/08/28 11:20:50;;;;;;;113.45;107.93;;;22.10;99.90;;;;;;5013575;28;20042;-78
2023/08/28 11:23:36;;;;;;;106.50;101.50;;;22.10;99.90;;;;;;5013188;28;20467;-77
2023/08/28 11:26:14;;;;;;;36.10;34.30;;;22.20;99.90;;;;;;5011739;28;20057;-75
2023/08/28 11:28:48;;;;;;;105.10;100.18;;;22.40;99.90;;;;;;5013289;28;20025;-76
2023/08/28 11:31:14;;;;;;;16.85;15.95;;;22.60;99.90;;;;;;5012352;28;20042;-76
2023/08/28 11:33:42;;;;;;;54.55;51.95;;;22.80;99.90;;;;;;5011949;28;20450;-75
2023/08/28 11:36:10;;;;;;;159.10;151.68;;;22.60;99.90;;;;;;5011425;28;20042;-76
2023/08/28 11:38:40;;;;;;;41.38;39.30;;;22.70;99.90;;;;;;5013482;28;20042;-76
2023/08/28 11:41:08;;;;;;;;;;;22.50;99.90;;;;;;5013627;28;20049;-77
2023/08/28 11:43:35;;;;;;;106.10;101.13;;;22.50;99.90;;;;;;5013052;28;19905;-76
2023/08/28 11:46:03;;;;;;;119.45;113.63;;;22.60;99.90;;;;;;5011492;28;20121;-76
2023/08/28 11:48:36;;;;;;;102.38;97.53;;;22.70;99.90;;;;;;5013371;28;20037;-75
2023/08/28 11:51:07;;;;;;;96.78;92.22;;;22.80;99.90;;;;;;5012422;28;20487;-75
2023/08/28 11:53:34;;;;;;;76.55;72.90;;;23.00;99.90;;;;;;5012790;28;20049;-77
2023/08/28 11:56:01;;;;;;;101.00;96.38;;;22.80;99.90;;;;;;5012271;28;20490;-75
2023/08/28 11:58:27;;;;;;;241.95;231.00;;;22.40;99.90;;;;;;5012904;28;20026;-76
2023/08/28 12:00:53;;;;;;;245.05;233.32;;;22.40;99.90;;;;;;5012579;28;20041;-76
2023/08/28 12:03:19;;;;;;;291.88;278.65;;;22.50;99.90;;;;;;5012755;28;20463;-76
2023/08/28 12:05:46;;;;;;;91.68;87.38;;;22.80;99.90;;;;;;5012724;28;20372;-76
2023/08/28 12:08:12;;;;;;;164.52;156.95;;;22.90;99.90;;;;;;5011243;28;20391;-76
2023/08/28 12:10:38;;;;;;;188.07;179.55;;;23.00;99.90;;;;;;5011435;28;20025;-76
2023/08/28 12:13:05;;;;;;;190.48;181.90;;;23.00;99.90;;;;;;5011517;28;20034;-76
2023/08/28 12:15:32;;;;;;;163.55;156.02;;;23.10;99.90;;;;;;5012218;28;20049;-76
2023/08/28 12:18:03;;;;;;;242.52;231.30;;;23.20;99.90;;;;;;5012908;28;20049;-75
2023/08/28 12:20:33;;;;;;;177.05;168.95;;;23.40;99.90;;;;;;5012230;28;20045;-76
2023/08/28 12:22:59;;;;;;;189.55;180.98;;;23.20;99.90;;;;;;5012678;28;20041;-76
2023/08/28 12:25:37;;;;;;;337.50;322.08;;;23.10;99.90;;;;;;5012472;28;20391;-74